createdAt,value
2022-10-22T00:02:20.561Z,35.65
2022-10-22T00:04:48.964Z,33.35
2022-10-22T00:07:17.143Z,42.53
2022-10-22T00:09:43.787Z,39.30
2022-10-22T00:12:10.828Z,35.38
2022-10-22T00:14:38.094Z,29.25
2022-10-22T00:17:06.916Z,35.55
2022-10-22T00:19:38.804Z,30.60
2022-10-22T00:22:06.152Z,31.20
2022-10-22T00:24:34.121Z,28.92
2022-10-22T00:27:01.256Z,29.10
2022-10-22T00:29:27.858Z,28.80
2022-10-22T00:34:22.411Z,29.30
2022-10-22T00:36:50.341Z,28.42
2022-10-22T00:39:18.541Z,27.45
2022-10-22T00:41:46.976Z,29.45
2022-10-22T00:44:51.305Z,32.23
2022-10-22T00:47:18.708Z,26.85
2022-10-22T00:49:46.782Z,28.15
2022-10-22T00:52:14.244Z,26.98
2022-10-22T00:54:42.218Z,23.73
2022-10-22T00:57:09.147Z,24.60
2022-10-22T00:59:37.196Z,23.55
2022-10-22T01:02:04.442Z,26.25
2022-10-22T01:04:31.038Z,26.38
2022-10-22T01:06:57.615Z,28.05
2022-10-22T01:09:39.011Z,26.13
2022-10-22T01:12:33.288Z,28.17
2022-10-22T01:15:10.596Z,27.08
2022-10-22T01:18:00.482Z,30.25
2022-10-22T01:20:29.980Z,31.30
2022-10-22T01:23:24.196Z,39.80
2022-10-22T01:26:00.389Z,33.17
2022-10-22T01:29:04.191Z,28.02
2022-10-22T01:31:36.209Z,32.38
2022-10-22T01:34:04.283Z,32.75
2022-10-22T01:36:32.985Z,29.33
2022-10-22T01:39:01.884Z,29.45
2022-10-22T01:41:29.262Z,27.48
2022-10-22T01:43:55.926Z,28.83
2022-10-22T01:46:24.546Z,26.50
2022-10-22T01:49:13.851Z,24.93
2022-10-22T01:52:26.669Z,23.92
2022-10-22T01:55:25.828Z,24.38
2022-10-22T01:58:07.815Z,27.90
2022-10-22T02:00:38.484Z,24.02
2022-10-22T02:03:18.673Z,31.53
2022-10-22T02:05:59.419Z,28.70
2022-10-22T02:08:30.857Z,24.58
2022-10-22T02:10:59.562Z,26.38
2022-10-22T02:13:50.241Z,26.30
2022-10-22T02:16:24.702Z,28.17
2022-10-22T02:18:54.290Z,28.30
2022-10-22T02:21:21.606Z,30.95
2022-10-22T02:23:48.392Z,27.40
2022-10-22T02:26:25.102Z,27.10
2022-10-22T02:29:01.707Z,31.17
2022-10-22T02:31:31.566Z,27.42
2022-10-22T02:34:02.490Z,27.88
2022-10-22T02:36:29.195Z,24.67
2022-10-22T02:38:56.312Z,24.25
2022-10-22T02:41:23.402Z,24.30
2022-10-22T02:43:54.380Z,25.60
2022-10-22T02:46:21.564Z,25.02
2022-10-22T02:48:48.198Z,23.17
2022-10-22T02:51:15.070Z,25.23
2022-10-22T02:53:41.663Z,25.73
2022-10-22T02:56:08.861Z,24.45
2022-10-22T02:58:35.398Z,23.20
2022-10-22T03:01:02.088Z,28.10
2022-10-22T03:03:28.747Z,26.05
2022-10-22T03:05:55.179Z,23.67
2022-10-22T03:08:21.728Z,24.83
2022-10-22T03:10:48.234Z,22.50
2022-10-22T03:13:14.767Z,23.38
2022-10-22T03:15:41.321Z,23.30
2022-10-22T03:18:07.798Z,22.83
2022-10-22T03:20:34.277Z,23.27
2022-10-22T03:23:02.128Z,25.77
2022-10-22T03:25:31.073Z,27.65
2022-10-22T03:28:02.915Z,25.70
2022-10-22T03:30:29.545Z,24.40
2022-10-22T03:32:56.113Z,28.00
2022-10-22T03:35:22.810Z,24.60
2022-10-22T03:37:49.740Z,23.98
2022-10-22T03:40:17.174Z,23.08
2022-10-22T03:42:44.116Z,21.83
2022-10-22T03:45:11.083Z,22.23
2022-10-22T03:47:38.025Z,22.70
2022-10-22T03:50:06.114Z,27.20
2022-10-22T03:52:37.317Z,22.50
2022-10-22T03:55:05.714Z,22.63
2022-10-22T03:57:32.241Z,22.48
2022-10-22T03:59:58.829Z,21.65
2022-10-22T04:02:25.478Z,22.27
2022-10-22T04:04:52.065Z,21.75
2022-10-22T04:07:18.509Z,22.13
2022-10-22T04:09:45.006Z,24.73
2022-10-22T04:12:12.196Z,22.30
2022-10-22T04:14:38.706Z,21.42
2022-10-22T04:17:05.267Z,22.77
2022-10-22T04:19:31.753Z,24.33
2022-10-22T04:21:59.740Z,29.33
2022-10-22T04:24:27.188Z,35.47
2022-10-22T04:26:54.768Z,28.67
2022-10-22T04:29:21.427Z,27.38
2022-10-22T04:31:47.873Z,28.83
2022-10-22T04:34:14.268Z,37.40
2022-10-22T04:36:40.823Z,28.67
2022-10-22T04:39:07.380Z,30.73
2022-10-22T04:41:36.774Z,34.15
2022-10-22T04:44:03.972Z,32.10
2022-10-22T04:46:32.721Z,28.70
2022-10-22T04:48:59.744Z,29.40
2022-10-22T04:51:27.248Z,27.42
2022-10-22T04:53:54.114Z,33.80
2022-10-22T04:56:27.236Z,25.67
2022-10-22T04:58:56.522Z,24.60
2022-10-22T05:01:36.983Z,25.17
2022-10-22T05:04:07.646Z,33.42
2022-10-22T05:06:36.794Z,33.55
2022-10-22T05:09:10.827Z,27.73
2022-10-22T05:11:41.792Z,29.65
2022-10-22T05:14:10.012Z,27.63
2022-10-22T05:16:38.124Z,28.40
2022-10-22T05:19:05.812Z,33.63
2022-10-22T05:21:32.292Z,34.90
2022-10-22T05:24:02.182Z,27.77
2022-10-22T05:26:29.115Z,25.00
2022-10-22T05:28:56.055Z,26.85
2022-10-22T05:31:22.668Z,28.15
2022-10-22T05:33:49.375Z,23.23
2022-10-22T05:36:20.658Z,23.48
2022-10-22T05:38:47.671Z,29.00
2022-10-22T05:41:17.029Z,26.52
2022-10-22T05:43:43.858Z,31.50
2022-10-22T05:46:13.230Z,40.23
2022-10-22T05:48:39.904Z,26.20
2022-10-22T05:51:11.953Z,24.75
2022-10-22T05:53:41.303Z,25.08
2022-10-22T05:56:14.247Z,23.88
2022-10-22T05:58:41.186Z,22.30
2022-10-22T06:01:17.868Z,33.63
2022-10-22T06:03:45.793Z,28.23
2022-10-22T06:06:19.659Z,29.10
2022-10-22T06:08:51.549Z,30.10
2022-10-22T06:11:19.543Z,24.57
2022-10-22T06:13:47.603Z,28.65
2022-10-22T06:16:14.585Z,31.17
2022-10-22T06:18:41.432Z,26.98
2022-10-22T06:21:13.611Z,22.92
2022-10-22T06:23:41.123Z,32.30
2022-10-22T06:26:08.484Z,32.47
2022-10-22T06:28:37.248Z,40.80
2022-10-22T06:31:04.481Z,33.25
2022-10-22T06:33:34.094Z,35.08
2022-10-22T06:36:18.082Z,35.27
2022-10-22T06:38:44.694Z,32.72
2022-10-22T06:41:16.251Z,34.17
2022-10-22T06:43:47.726Z,31.38
2022-10-22T06:46:20.233Z,32.95
2022-10-22T06:48:55.214Z,31.20
2022-10-22T06:51:21.754Z,31.90
2022-10-22T06:53:48.801Z,33.40
2022-10-22T06:56:18.482Z,32.83
2022-10-22T06:58:50.305Z,34.70
2022-10-22T07:01:19.128Z,32.70
2022-10-22T07:03:45.772Z,32.65
2022-10-22T07:06:14.657Z,33.33
2022-10-22T07:08:42.465Z,30.60
2022-10-22T07:11:15.117Z,32.90
2022-10-22T07:13:41.945Z,31.17
2022-10-22T07:16:09.694Z,30.48
2022-10-22T07:18:37.851Z,29.20
2022-10-22T07:21:05.450Z,27.90
2022-10-22T07:23:31.945Z,25.70
2022-10-22T07:25:59.061Z,26.03
2022-10-22T07:28:25.670Z,26.60
2022-10-22T07:30:52.199Z,25.67
2022-10-22T07:33:18.731Z,27.92
2022-10-22T07:35:45.211Z,26.17
2022-10-22T07:38:11.618Z,26.27
2022-10-22T07:40:38.362Z,26.50
2022-10-22T07:43:05.009Z,27.02
2022-10-22T07:45:31.871Z,27.58
2022-10-22T07:47:59.547Z,26.92
2022-10-22T07:50:26.466Z,27.27
2022-10-22T07:52:54.859Z,23.90
2022-10-22T07:55:23.932Z,27.13
2022-10-22T07:57:50.449Z,26.30
2022-10-22T08:00:19.447Z,22.08
2022-10-22T08:02:48.399Z,23.60
2022-10-22T08:05:16.393Z,23.67
2022-10-22T08:07:43.519Z,23.58
2022-10-22T08:10:11.919Z,23.85
2022-10-22T08:12:41.527Z,23.83
2022-10-22T08:15:08.951Z,22.83
2022-10-22T08:17:36.764Z,22.85
2022-10-22T08:20:03.817Z,23.75
2022-10-22T08:22:30.450Z,26.33
2022-10-22T08:24:57.006Z,23.33
2022-10-22T08:27:23.523Z,22.00
2022-10-22T08:29:50.765Z,22.35
2022-10-22T08:32:17.306Z,24.27
2022-10-22T08:34:43.892Z,22.05
2022-10-22T08:37:14.131Z,25.42
2022-10-22T08:39:41.314Z,21.87
2022-10-22T08:42:33.035Z,25.92
2022-10-22T08:45:44.415Z,25.63
2022-10-22T08:48:38.894Z,22.92
2022-10-22T08:51:05.790Z,21.48
2022-10-22T08:53:41.606Z,20.53
2022-10-22T08:56:08.219Z,20.73
2022-10-22T08:58:53.524Z,21.67
2022-10-22T09:01:25.659Z,19.13
2022-10-22T09:04:01.164Z,21.55
2022-10-22T09:06:31.560Z,17.67
2022-10-22T09:09:00.281Z,21.05
2022-10-22T09:11:32.612Z,20.25
2022-10-22T09:14:00.177Z,22.00
2022-10-22T09:16:36.710Z,23.10
2022-10-22T09:19:35.605Z,20.10
2022-10-22T09:22:14.290Z,20.17
2022-10-22T09:24:52.068Z,21.10
2022-10-22T09:27:23.606Z,21.63
2022-10-22T09:29:50.153Z,20.08
2022-10-22T09:32:17.877Z,19.73
2022-10-22T09:34:46.331Z,19.45
2022-10-22T09:37:15.881Z,17.98
2022-10-22T09:39:48.003Z,22.27
2022-10-22T09:42:16.973Z,17.70
2022-10-22T09:44:47.709Z,21.37
2022-10-22T09:47:42.826Z,18.45
2022-10-22T09:50:23.010Z,18.30
2022-10-22T09:53:20.449Z,18.38
2022-10-22T09:55:53.741Z,19.50
2022-10-22T09:58:20.756Z,18.53
2022-10-22T10:00:57.708Z,23.25
2022-10-22T10:03:29.395Z,21.52
2022-10-22T10:06:02.993Z,19.60
2022-10-22T10:08:32.442Z,24.27
2022-10-22T10:11:06.084Z,20.23
2022-10-22T10:13:45.361Z,22.13
2022-10-22T10:16:30.526Z,24.80
2022-10-22T10:19:20.889Z,22.88
2022-10-22T10:22:05.869Z,20.80
2022-10-22T10:25:14.609Z,22.17
2022-10-22T10:27:47.473Z,23.50
2022-10-22T10:30:18.197Z,21.80
2022-10-22T10:33:20.025Z,24.23
2022-10-22T10:35:56.744Z,24.20
2022-10-22T10:38:58.107Z,25.37
2022-10-22T10:41:43.321Z,23.55
2022-10-22T10:44:20.825Z,25.70
2022-10-22T10:46:55.158Z,27.85
2022-10-22T10:49:27.188Z,25.02
2022-10-22T10:52:10.382Z,22.33
2022-10-22T10:55:00.642Z,28.70
2022-10-22T10:57:47.205Z,22.33
2022-10-22T11:00:20.171Z,24.70
2022-10-22T11:03:30.569Z,24.67
2022-10-22T11:06:01.601Z,21.07
2022-10-22T11:08:36.625Z,24.17
2022-10-22T11:11:12.821Z,22.48
2022-10-22T11:13:51.441Z,26.70
2022-10-22T11:16:26.980Z,23.35
2022-10-22T11:19:06.100Z,23.50
2022-10-22T11:21:41.301Z,26.83
2022-10-22T11:24:07.802Z,26.42
2022-10-22T11:26:43.984Z,23.35
2022-10-22T11:29:29.459Z,22.45
2022-10-22T11:32:01.237Z,22.67
2022-10-22T11:34:34.281Z,21.10
2022-10-22T11:37:04.775Z,20.08
2022-10-22T11:40:05.250Z,21.70
2022-10-22T11:42:38.075Z,21.50
2022-10-22T11:45:06.714Z,20.87
2022-10-22T11:47:41.966Z,22.80
2022-10-22T11:50:26.813Z,24.70
2022-10-22T11:53:07.733Z,19.42
2022-10-22T11:55:45.419Z,20.23
2022-10-22T11:58:50.816Z,20.03
2022-10-22T12:01:26.469Z,19.17
2022-10-22T12:04:12.994Z,19.45
2022-10-22T12:06:59.338Z,19.98
2022-10-22T12:09:30.057Z,18.73
2022-10-22T12:12:04.586Z,23.27
2022-10-22T12:14:50.546Z,19.15
2022-10-22T12:17:18.084Z,21.65
2022-10-22T12:19:51.145Z,20.55
2022-10-22T12:22:32.286Z,19.40
2022-10-22T12:25:06.094Z,19.77
2022-10-22T12:27:41.028Z,19.42
2022-10-22T12:30:29.499Z,18.65
2022-10-22T12:32:58.511Z,18.10
2022-10-22T12:35:28.154Z,19.23
2022-10-22T12:37:57.174Z,17.00
2022-10-22T12:40:26.493Z,16.88
2022-10-22T12:42:56.639Z,15.70
2022-10-22T12:45:26.566Z,15.32
2022-10-22T12:47:57.809Z,15.77
2022-10-22T12:50:37.473Z,13.63
2022-10-22T12:53:15.046Z,11.88
2022-10-22T12:55:41.988Z,11.80
2022-10-22T12:58:08.653Z,12.77
2022-10-22T13:00:35.863Z,12.48
2022-10-22T13:03:05.797Z,13.63
2022-10-22T13:05:38.874Z,12.13
2022-10-22T13:08:10.427Z,10.02
2022-10-22T13:10:40.586Z,13.68
2022-10-22T13:13:07.382Z,12.80
2022-10-22T13:15:37.547Z,9.77
2022-10-22T13:18:07.370Z,10.40
2022-10-22T13:20:37.273Z,9.07
2022-10-22T13:23:06.179Z,11.38
2022-10-22T13:25:35.614Z,10.02
2022-10-22T13:28:19.504Z,10.03
2022-10-22T13:31:16.273Z,8.38
2022-10-22T13:33:45.842Z,9.15
2022-10-22T13:36:16.826Z,8.70
2022-10-22T13:38:44.135Z,8.18
2022-10-22T13:44:12.131Z,8.85
2022-10-22T13:46:42.563Z,10.38
2022-10-22T13:49:22.446Z,10.20
2022-10-22T13:51:50.817Z,8.23
2022-10-22T13:54:20.981Z,9.50
2022-10-22T13:56:47.508Z,8.30
2022-10-22T13:59:15.375Z,8.13
2022-10-22T14:01:45.555Z,11.43
2022-10-22T14:04:14.561Z,8.55
2022-10-22T14:06:41.070Z,9.77
2022-10-22T14:09:13.365Z,10.40
2022-10-22T14:11:39.889Z,13.57
2022-10-22T14:14:08.976Z,8.23
2022-10-22T14:16:37.413Z,10.30
2022-10-22T14:19:07.247Z,8.53
2022-10-22T14:21:37.087Z,10.65
2022-10-22T14:24:05.986Z,9.68
2022-10-22T14:26:35.058Z,11.35
2022-10-22T14:29:10.999Z,8.27
2022-10-22T14:31:43.416Z,9.13
2022-10-22T14:34:12.188Z,9.80
2022-10-22T14:36:38.982Z,9.45
2022-10-22T14:39:05.487Z,9.52
2022-10-22T14:41:31.950Z,9.95
2022-10-22T14:43:59.742Z,10.13
2022-10-22T14:46:26.296Z,10.02
2022-10-22T14:48:52.786Z,11.38
2022-10-22T14:51:21.373Z,11.38
2022-10-22T14:53:48.026Z,11.05
2022-10-22T14:56:17.387Z,9.70
2022-10-22T14:58:45.506Z,9.70
2022-10-22T15:01:12.520Z,9.20
2022-10-22T15:03:39.014Z,13.88
2022-10-22T15:06:06.050Z,11.43
2022-10-22T15:08:32.955Z,8.77
2022-10-22T15:11:01.847Z,7.32
2022-10-22T15:13:29.220Z,8.43
2022-10-22T15:15:57.027Z,7.85
2022-10-22T15:18:23.875Z,9.70
2022-10-22T15:21:00.653Z,10.00
2022-10-22T15:23:27.639Z,9.68
2022-10-22T15:25:54.450Z,7.95
2022-10-22T15:28:21.166Z,8.18
2022-10-22T15:30:53.147Z,9.32
2022-10-22T15:33:19.841Z,9.50
2022-10-22T15:35:46.369Z,12.20
2022-10-22T15:38:12.939Z,9.77
2022-10-22T15:40:39.517Z,8.90
2022-10-22T15:43:06.002Z,9.07
2022-10-22T15:45:32.501Z,9.23
2022-10-22T15:47:58.996Z,11.50
2022-10-22T15:50:25.555Z,13.35
2022-10-22T15:52:52.154Z,13.18
2022-10-22T15:55:18.824Z,16.48
2022-10-22T15:57:45.869Z,14.13
2022-10-22T16:00:13.003Z,13.15
2022-10-22T16:02:40.572Z,20.30
2022-10-22T16:05:07.629Z,21.40
2022-10-22T16:07:34.088Z,21.17
2022-10-22T16:10:01.594Z,21.33
2022-10-22T16:12:28.147Z,19.67
2022-10-22T16:14:54.608Z,18.80
2022-10-22T16:17:21.264Z,16.50
2022-10-22T16:19:48.178Z,16.95
2022-10-22T16:22:15.611Z,19.27
2022-10-22T16:24:42.213Z,15.30
2022-10-22T16:27:09.265Z,17.90
2022-10-22T16:29:38.348Z,19.65
2022-10-22T16:32:05.294Z,17.80
2022-10-22T16:34:31.923Z,25.17
2022-10-22T16:36:58.514Z,18.33
2022-10-22T16:39:25.303Z,24.13
2022-10-22T16:41:51.977Z,25.48
2022-10-22T16:44:18.656Z,27.48
2022-10-22T16:46:45.256Z,28.83
2022-10-22T16:49:11.856Z,26.75
2022-10-22T16:51:39.253Z,30.08
2022-10-22T16:54:08.351Z,25.38
2022-10-22T16:56:38.035Z,29.58
2022-10-22T16:59:04.583Z,31.63
2022-10-22T17:01:31.472Z,32.58
2022-10-22T17:04:01.559Z,40.22
2022-10-22T17:06:28.638Z,40.92
2022-10-22T17:08:55.262Z,37.25
2022-10-22T17:11:23.790Z,44.23
2022-10-22T17:13:52.701Z,39.70
2022-10-22T17:16:21.624Z,33.63
2022-10-22T17:18:48.988Z,34.60
2022-10-22T17:21:16.256Z,31.05
2022-10-22T17:23:42.813Z,31.67
2022-10-22T17:26:14.750Z,26.90
2022-10-22T17:28:41.436Z,30.70
2022-10-22T17:31:37.316Z,28.55
2022-10-22T17:34:06.422Z,24.10
2022-10-22T17:36:35.866Z,27.20
2022-10-22T17:39:06.358Z,27.23
2022-10-22T17:41:36.233Z,21.85
2022-10-22T17:44:05.640Z,22.33
2022-10-22T17:46:32.733Z,21.35
2022-10-22T17:49:01.790Z,20.03
2022-10-22T17:51:29.839Z,17.75
2022-10-22T17:53:56.708Z,18.25
2022-10-22T17:56:29.792Z,18.20
2022-10-22T17:58:56.613Z,19.45
2022-10-22T18:01:28.421Z,16.83
2022-10-22T18:03:59.873Z,17.48
2022-10-22T18:06:26.580Z,15.75
2022-10-22T18:11:22.966Z,18.77
2022-10-22T18:13:53.615Z,19.17
2022-10-22T18:16:20.588Z,18.77
2022-10-22T18:18:49.567Z,16.13
2022-10-22T18:21:17.496Z,17.92
2022-10-22T18:23:45.007Z,14.43
2022-10-22T18:26:11.992Z,18.40
2022-10-22T18:28:38.468Z,15.63
2022-10-22T18:31:07.104Z,15.77
2022-10-22T18:33:34.927Z,14.13
2022-10-22T18:36:06.916Z,15.80
2022-10-22T18:38:33.754Z,15.37
2022-10-22T18:41:00.300Z,11.60
2022-10-22T18:43:27.289Z,11.32
2022-10-22T18:45:53.842Z,16.13
2022-10-22T18:48:22.824Z,20.80
2022-10-22T18:50:59.427Z,15.03
2022-10-22T18:53:26.402Z,15.40
2022-10-22T18:55:53.121Z,18.63
2022-10-22T18:58:19.735Z,13.65
2022-10-22T19:00:46.281Z,16.45
2022-10-22T19:03:14.227Z,17.77
2022-10-22T19:05:52.158Z,15.90
2022-10-22T19:08:19.916Z,16.73
2022-10-22T19:10:48.142Z,18.25
2022-10-22T19:13:16.465Z,20.42
2022-10-22T19:15:43.093Z,18.90
2022-10-22T19:18:10.055Z,17.95
2022-10-22T19:20:36.949Z,26.80
2022-10-22T19:23:04.269Z,27.52
2022-10-22T19:25:30.829Z,22.65
2022-10-22T19:27:57.392Z,21.37
2022-10-22T19:30:24.248Z,17.73
2022-10-22T19:32:50.867Z,19.95
2022-10-22T19:35:17.544Z,19.40
2022-10-22T19:37:48.206Z,29.75
2022-10-22T19:40:15.493Z,29.30
2022-10-22T19:42:44.207Z,21.13
2022-10-22T19:45:11.150Z,20.20
2022-10-22T19:47:37.774Z,20.13
2022-10-22T19:50:04.534Z,18.50
2022-10-22T19:52:30.990Z,17.53
2022-10-22T19:54:57.478Z,19.33
2022-10-22T19:57:24.045Z,20.88
2022-10-22T19:59:50.896Z,19.20
2022-10-22T20:02:18.394Z,19.80
2022-10-22T20:04:49.212Z,20.70
2022-10-22T20:07:16.967Z,20.33
2022-10-22T20:09:43.491Z,13.57
2022-10-22T20:12:09.999Z,14.65
2022-10-22T20:14:37.416Z,14.20
2022-10-22T20:17:04.079Z,16.27
2022-10-22T20:19:30.760Z,15.00
2022-10-22T20:21:57.229Z,13.23
2022-10-22T20:24:23.749Z,14.40
2022-10-22T20:26:50.164Z,14.52
2022-10-22T20:29:18.997Z,13.80
2022-10-22T20:31:46.574Z,20.63
2022-10-22T20:34:13.540Z,11.88
2022-10-22T20:36:41.487Z,10.43
2022-10-22T20:39:11.867Z,13.60
2022-10-22T20:41:40.352Z,10.57
2022-10-22T20:44:11.190Z,12.13
2022-10-22T20:46:37.646Z,11.82
2022-10-22T20:49:15.860Z,9.20
2022-10-22T20:51:42.884Z,11.98
2022-10-22T20:54:10.516Z,12.57
2022-10-22T20:56:38.693Z,12.90
2022-10-22T20:59:07.997Z,11.32
2022-10-22T21:01:39.055Z,10.73
2022-10-22T21:04:06.608Z,11.18
2022-10-22T21:06:34.257Z,10.47
2022-10-22T21:09:00.827Z,13.25
2022-10-22T21:11:27.368Z,11.55
2022-10-22T21:13:53.875Z,12.15
2022-10-22T21:16:20.487Z,16.33
2022-10-22T21:18:47.325Z,14.10
2022-10-22T21:21:14.029Z,14.60
2022-10-22T21:23:40.507Z,15.48
2022-10-22T21:26:07.094Z,14.60
2022-10-22T21:28:35.747Z,14.50
2022-10-22T21:31:04.255Z,18.90
2022-10-22T21:33:31.298Z,14.98
2022-10-22T21:35:58.446Z,14.35
2022-10-22T21:38:25.455Z,17.30
2022-10-22T21:40:52.553Z,14.85
2022-10-22T21:43:19.407Z,15.80
2022-10-22T21:45:45.919Z,12.38
2022-10-22T21:48:15.394Z,13.15
2022-10-22T21:50:43.770Z,14.00
2022-10-22T21:53:12.125Z,11.10
2022-10-22T21:55:42.036Z,13.90
2022-10-22T21:58:08.678Z,13.15
2022-10-22T22:00:35.582Z,13.65
2022-10-22T22:03:02.221Z,12.52
2022-10-22T22:05:29.223Z,12.38
2022-10-22T22:07:55.713Z,13.03
2022-10-22T22:10:22.252Z,11.02
2022-10-22T22:12:51.162Z,14.93
2022-10-22T22:15:19.001Z,15.35
2022-10-22T22:17:45.599Z,14.85
2022-10-22T22:20:12.144Z,13.83
2022-10-22T22:22:40.037Z,13.65
2022-10-22T22:25:06.980Z,13.35
2022-10-22T22:27:33.482Z,12.85
2022-10-22T22:30:00.024Z,13.68
2022-10-22T22:32:26.578Z,12.17
2022-10-22T22:34:53.095Z,14.95
2022-10-22T22:37:19.557Z,15.48
2022-10-22T22:39:46.011Z,15.23
2022-10-22T22:42:12.489Z,12.57
2022-10-22T22:44:39.235Z,14.13
2022-10-22T22:47:05.725Z,14.70
2022-10-22T22:49:33.134Z,11.77
2022-10-22T22:51:59.719Z,13.65
2022-10-22T22:54:26.224Z,12.68
2022-10-22T22:56:52.705Z,12.00
2022-10-22T22:59:19.432Z,11.82
2022-10-22T23:01:48.233Z,16.52
2022-10-22T23:04:19.326Z,20.17
2022-10-22T23:06:46.258Z,19.92
2022-10-22T23:09:14.491Z,20.03
2022-10-22T23:11:42.330Z,19.20
2022-10-22T23:14:13.638Z,14.93
2022-10-22T23:16:42.468Z,17.73
2022-10-22T23:19:09.997Z,17.33
2022-10-22T23:21:39.042Z,13.50
2022-10-22T23:24:11.565Z,15.07
2022-10-22T23:26:44.699Z,15.68
2022-10-22T23:29:17.108Z,16.33
2022-10-22T23:31:44.870Z,15.65
2022-10-22T23:34:15.892Z,18.53
2022-10-22T23:36:42.694Z,18.38
2022-10-22T23:39:15.174Z,16.50
2022-10-22T23:41:41.703Z,17.08
2022-10-22T23:44:09.776Z,16.95
2022-10-22T23:46:38.464Z,20.03
2022-10-22T23:49:06.296Z,17.75
2022-10-22T23:51:33.081Z,22.33
2022-10-22T23:54:02.256Z,16.08
2022-10-22T23:56:29.283Z,20.15
2022-10-22T23:58:56.597Z,22.90
